createdAt,value
2023-02-24T00:01:38.227Z,29.43
2023-02-24T00:03:41.886Z,23.90
2023-02-24T00:05:49.951Z,39.67
2023-02-24T00:07:53.027Z,45.23
2023-02-24T00:09:56.056Z,32.87
2023-02-24T00:12:01.140Z,49.17
2023-02-24T00:14:06.246Z,32.07
2023-02-24T00:16:11.919Z,35.53
2023-02-24T00:18:16.050Z,31.87
2023-02-24T00:20:19.939Z,25.77
2023-02-24T00:22:22.997Z,37.77
2023-02-24T00:24:25.927Z,28.60
2023-02-24T00:26:30.172Z,29.20
2023-02-24T00:28:33.236Z,32.87
2023-02-24T00:30:36.677Z,37.67
2023-02-24T00:32:41.127Z,27.57
2023-02-24T00:34:44.616Z,34.23
2023-02-24T00:36:47.686Z,30.90
2023-02-24T00:38:51.723Z,39.40
2023-02-24T00:40:55.650Z,38.37
2023-02-24T00:42:59.419Z,34.37
2023-02-24T00:45:10.025Z,37.93
2023-02-24T00:47:16.324Z,27.57
2023-02-24T00:49:21.082Z,38.10
2023-02-24T00:51:25.615Z,30.60
2023-02-24T00:53:29.560Z,37.70
2023-02-24T00:55:36.429Z,34.27
2023-02-24T00:57:39.698Z,27.37
2023-02-24T00:59:47.486Z,40.63
2023-02-24T01:01:51.389Z,43.40
2023-02-24T01:03:55.737Z,29.93
2023-02-24T01:06:04.191Z,32.23
2023-02-24T01:08:08.042Z,30.00
2023-02-24T01:10:13.292Z,34.80
2023-02-24T01:12:38.571Z,22.20
2023-02-24T01:14:42.548Z,33.30
2023-02-24T01:16:50.297Z,32.13
2023-02-24T01:18:53.562Z,29.67
2023-02-24T01:20:56.774Z,33.33
2023-02-24T01:23:03.584Z,32.20
2023-02-24T01:25:09.192Z,34.23
2023-02-24T01:27:13.124Z,21.10
2023-02-24T01:29:16.176Z,25.47
2023-02-24T01:31:20.913Z,26.87
2023-02-24T01:33:24.383Z,26.37
2023-02-24T01:35:27.547Z,22.33
2023-02-24T01:37:30.450Z,37.77
2023-02-24T01:39:35.812Z,33.03
2023-02-24T01:41:39.548Z,17.10
2023-02-24T01:44:03.521Z,30.40
2023-02-24T01:46:10.890Z,26.20
2023-02-24T01:48:17.231Z,26.87
2023-02-24T01:50:22.514Z,41.43
2023-02-24T01:52:31.431Z,29.63
2023-02-24T01:54:43.161Z,32.13
2023-02-24T01:56:47.148Z,20.30
2023-02-24T01:58:50.973Z,26.80
2023-02-24T02:00:54.446Z,28.23
2023-02-24T02:02:58.943Z,36.13
2023-02-24T02:05:05.829Z,33.00
2023-02-24T02:07:11.213Z,29.63
2023-02-24T02:09:15.272Z,28.90
2023-02-24T02:11:21.627Z,32.70
2023-02-24T02:13:25.467Z,27.30
2023-02-24T02:15:29.617Z,25.80
2023-02-24T02:17:36.889Z,19.33
2023-02-24T02:20:22.131Z,29.97
2023-02-24T02:22:46.391Z,30.10
2023-02-24T02:24:54.268Z,25.33
2023-02-24T02:27:12.449Z,21.20
2023-02-24T02:29:52.143Z,28.30
2023-02-24T02:32:31.525Z,19.00
2023-02-24T02:34:46.172Z,26.97
2023-02-24T02:36:57.022Z,36.03
2023-02-24T02:39:04.967Z,22.87
2023-02-24T02:41:13.736Z,30.07
2023-02-24T02:43:24.782Z,34.87
2023-02-24T02:45:31.391Z,28.70
2023-02-24T02:47:37.217Z,21.90
2023-02-24T02:49:44.231Z,30.70
2023-02-24T02:51:52.656Z,23.10
2023-02-24T02:54:01.359Z,30.97
2023-02-24T02:56:09.570Z,28.33
2023-02-24T02:58:16.132Z,25.77
2023-02-24T03:00:24.640Z,30.93
2023-02-24T03:02:38.389Z,14.70
2023-02-24T03:04:46.564Z,19.83
2023-02-24T03:06:54.465Z,23.47
2023-02-24T03:09:01.108Z,25.97
2023-02-24T03:11:06.520Z,16.37
2023-02-24T03:13:10.817Z,20.20
2023-02-24T03:15:15.389Z,15.23
2023-02-24T03:17:23.241Z,26.03
2023-02-24T03:19:30.969Z,32.60
2023-02-24T03:21:38.424Z,23.93
2023-02-24T03:23:45.327Z,19.90
2023-02-24T03:25:53.926Z,20.47
2023-02-24T03:28:03.124Z,26.37
2023-02-24T03:30:09.652Z,21.97
2023-02-24T03:32:15.619Z,23.23
2023-02-24T03:34:23.854Z,25.77
2023-02-24T03:36:27.148Z,25.33
2023-02-24T03:38:32.416Z,25.27
2023-02-24T03:40:36.266Z,23.93
2023-02-24T03:42:43.401Z,23.57
2023-02-24T03:44:46.549Z,23.60
2023-02-24T03:46:49.826Z,27.43
2023-02-24T03:49:00.979Z,23.40
2023-02-24T03:51:06.341Z,22.77
2023-02-24T03:53:34.105Z,27.30
2023-02-24T03:55:47.124Z,26.73
2023-02-24T03:58:00.954Z,24.23
2023-02-24T04:00:22.825Z,14.53
2023-02-24T04:02:32.841Z,18.10
2023-02-24T04:04:41.700Z,19.23
2023-02-24T04:07:00.046Z,26.43
2023-02-24T04:09:10.447Z,21.80
2023-02-24T04:11:26.879Z,19.37
2023-02-24T04:13:36.645Z,17.83
2023-02-24T04:15:53.013Z,14.33
2023-02-24T04:17:58.472Z,16.27
2023-02-24T04:20:13.416Z,19.30
2023-02-24T04:22:24.527Z,21.63
2023-02-24T04:24:31.661Z,15.70
2023-02-24T04:26:36.619Z,26.90
2023-02-24T04:28:41.086Z,16.43
2023-02-24T04:30:46.459Z,15.20
2023-02-24T04:32:49.619Z,17.70
2023-02-24T04:34:53.966Z,18.37
2023-02-24T04:36:59.300Z,20.37
2023-02-24T04:39:02.255Z,27.07
2023-02-24T04:41:06.991Z,17.83
2023-02-24T04:43:11.004Z,20.03
2023-02-24T04:45:16.575Z,16.50
2023-02-24T04:47:19.582Z,13.83
2023-02-24T04:49:23.397Z,32.23
2023-02-24T04:51:26.423Z,18.80
2023-02-24T04:53:29.541Z,13.60
2023-02-24T04:55:34.116Z,20.67
2023-02-24T04:57:38.872Z,18.07
2023-02-24T04:59:41.786Z,21.13
2023-02-24T05:01:45.323Z,20.20
2023-02-24T05:03:48.327Z,20.27
2023-02-24T05:05:53.028Z,19.87
2023-02-24T05:07:57.725Z,28.13
2023-02-24T05:10:00.629Z,17.97
2023-02-24T05:12:05.218Z,19.00
2023-02-24T05:14:10.426Z,23.10
2023-02-24T05:16:18.289Z,20.17
2023-02-24T05:18:23.773Z,21.37
2023-02-24T05:20:44.820Z,22.60
2023-02-24T05:22:52.001Z,18.13
2023-02-24T05:24:57.291Z,17.13
2023-02-24T05:27:00.307Z,15.40
2023-02-24T05:29:03.781Z,14.43
2023-02-24T05:31:10.062Z,12.13
2023-02-24T05:33:13.534Z,13.43
2023-02-24T05:35:16.441Z,13.53
2023-02-24T05:37:19.407Z,15.17
2023-02-24T05:39:22.390Z,26.07
2023-02-24T05:41:32.494Z,23.87
2023-02-24T05:43:39.238Z,11.23
2023-02-24T05:45:43.263Z,12.53
2023-02-24T05:47:48.930Z,14.03
2023-02-24T05:49:54.435Z,14.97
2023-02-24T05:52:00.752Z,14.60
2023-02-24T05:54:04.566Z,10.93
2023-02-24T05:56:07.495Z,20.27
2023-02-24T05:58:10.572Z,28.90
2023-02-24T06:00:16.470Z,14.83
2023-02-24T06:02:27.787Z,18.73
2023-02-24T06:04:40.694Z,20.83
2023-02-24T06:06:43.983Z,11.90
2023-02-24T06:08:50.549Z,18.53
2023-02-24T06:10:53.725Z,23.33
2023-02-24T06:12:56.832Z,24.03
2023-02-24T06:15:00.126Z,21.40
2023-02-24T06:17:03.699Z,15.50
2023-02-24T06:19:08.467Z,16.30
2023-02-24T06:21:13.565Z,14.60
2023-02-24T06:23:17.883Z,21.03
2023-02-24T06:25:21.680Z,9.07
2023-02-24T06:27:25.572Z,15.17
2023-02-24T06:29:29.986Z,16.93
2023-02-24T06:31:33.282Z,17.00
2023-02-24T06:33:37.060Z,18.60
2023-02-24T06:35:40.078Z,17.70
2023-02-24T06:37:44.800Z,15.13
2023-02-24T06:39:48.137Z,16.77
2023-02-24T06:41:52.898Z,14.33
2023-02-24T06:43:55.916Z,14.47
2023-02-24T06:45:59.932Z,12.40
2023-02-24T06:48:03.638Z,13.83
2023-02-24T06:50:07.941Z,11.57
2023-02-24T06:52:11.030Z,15.03
2023-02-24T06:54:15.857Z,16.80
2023-02-24T06:56:20.140Z,10.53
2023-02-24T06:58:24.247Z,7.43
2023-02-24T07:00:37.177Z,19.53
2023-02-24T07:02:41.272Z,17.63
2023-02-24T07:04:44.726Z,17.10
2023-02-24T07:06:52.500Z,19.43
2023-02-24T07:08:55.770Z,18.17
2023-02-24T07:11:00.218Z,10.10
2023-02-24T07:13:03.154Z,14.00
2023-02-24T07:15:07.143Z,15.97
2023-02-24T07:17:10.366Z,16.57
2023-02-24T07:19:15.218Z,13.40
2023-02-24T07:21:23.503Z,10.20
2023-02-24T07:23:27.444Z,14.80
2023-02-24T07:25:34.057Z,17.90
2023-02-24T07:27:39.193Z,20.50
2023-02-24T07:29:42.123Z,17.90
2023-02-24T07:31:45.448Z,19.10
2023-02-24T07:33:48.812Z,15.27
2023-02-24T07:35:52.119Z,14.70
2023-02-24T07:37:56.034Z,16.67
2023-02-24T07:39:59.433Z,11.50
2023-02-24T07:42:02.340Z,10.67
2023-02-24T07:44:09.505Z,13.83
2023-02-24T07:46:14.653Z,18.77
2023-02-24T07:48:18.074Z,16.03
2023-02-24T07:50:21.856Z,9.87
2023-02-24T07:52:25.029Z,19.20
2023-02-24T07:54:30.072Z,18.33
2023-02-24T07:56:33.436Z,18.20
2023-02-24T07:58:36.442Z,21.63
2023-02-24T08:00:59.429Z,12.93
2023-02-24T08:03:02.670Z,17.63
2023-02-24T08:05:09.310Z,17.83
2023-02-24T08:07:14.575Z,14.87
2023-02-24T08:09:20.808Z,13.60
2023-02-24T08:11:25.013Z,16.27
2023-02-24T08:13:34.911Z,12.00
2023-02-24T08:15:37.924Z,21.43
2023-02-24T08:17:42.552Z,15.77
2023-02-24T08:19:47.056Z,9.50
2023-02-24T08:21:51.650Z,14.20
2023-02-24T08:23:54.566Z,20.83
2023-02-24T08:25:57.423Z,14.40
2023-02-24T08:28:08.996Z,13.73
2023-02-24T08:30:23.367Z,14.30
2023-02-24T08:32:27.911Z,24.70
2023-02-24T08:34:32.213Z,20.23
2023-02-24T08:36:35.395Z,17.10
2023-02-24T08:38:42.213Z,16.43
2023-02-24T08:40:54.854Z,19.43
2023-02-24T08:42:59.574Z,16.30
2023-02-24T08:45:03.092Z,12.53
2023-02-24T08:47:07.813Z,11.60
2023-02-24T08:49:12.309Z,13.70
2023-02-24T08:51:22.680Z,16.63
2023-02-24T08:53:31.489Z,12.63
2023-02-24T08:55:39.834Z,14.97
2023-02-24T08:57:53.529Z,15.23
2023-02-24T08:59:58.652Z,13.60
2023-02-24T09:02:18.299Z,13.63
2023-02-24T09:04:21.868Z,8.90
2023-02-24T09:06:38.577Z,14.93
2023-02-24T09:08:41.924Z,7.10
2023-02-24T09:11:22.983Z,19.73
2023-02-24T09:13:32.862Z,13.03
2023-02-24T09:15:41.399Z,13.43
2023-02-24T09:18:01.456Z,11.10
2023-02-24T09:20:30.935Z,18.33
2023-02-24T09:22:57.236Z,18.63
2023-02-24T09:25:21.850Z,23.80
2023-02-24T09:27:29.343Z,11.87
2023-02-24T09:29:35.171Z,21.93
2023-02-24T09:31:49.217Z,17.77
2023-02-24T09:33:52.693Z,14.13
2023-02-24T09:36:03.338Z,11.13
2023-02-24T09:38:07.704Z,12.87
2023-02-24T09:40:25.579Z,15.77
2023-02-24T09:42:33.520Z,10.83
2023-02-24T09:44:40.373Z,12.97
2023-02-24T09:46:54.256Z,13.17
2023-02-24T09:49:05.384Z,12.80
2023-02-24T09:51:10.578Z,14.20
2023-02-24T09:53:18.326Z,15.43
2023-02-24T09:55:27.132Z,10.20
2023-02-24T09:57:37.606Z,18.90
2023-02-24T10:00:01.264Z,10.70
2023-02-24T10:02:17.040Z,16.67
2023-02-24T10:04:49.494Z,13.93
2023-02-24T10:07:03.241Z,13.63
2023-02-24T10:09:14.624Z,17.27
2023-02-24T10:11:32.961Z,13.17
2023-02-24T10:13:39.375Z,14.27
2023-02-24T10:15:59.290Z,18.97
2023-02-24T10:18:27.433Z,13.00
2023-02-24T10:20:39.562Z,13.70
2023-02-24T10:22:50.708Z,17.87
2023-02-24T10:25:11.012Z,14.83
2023-02-24T10:27:17.933Z,14.30
2023-02-24T10:29:29.524Z,16.13
2023-02-24T10:31:38.648Z,13.73
2023-02-24T10:33:45.294Z,11.73
2023-02-24T10:35:50.322Z,20.27
2023-02-24T10:37:56.423Z,13.17
2023-02-24T10:40:09.512Z,14.67
2023-02-24T10:42:24.380Z,13.63
2023-02-24T10:44:36.173Z,20.90
2023-02-24T10:46:41.924Z,25.73
2023-02-24T10:48:52.601Z,19.80
2023-02-24T10:51:08.435Z,9.30
2023-02-24T10:53:26.569Z,28.40
2023-02-24T10:55:53.499Z,17.40
2023-02-24T10:58:06.156Z,19.23
2023-02-24T11:00:51.942Z,12.13
2023-02-24T11:03:07.149Z,12.23
2023-02-24T11:05:38.012Z,18.87
2023-02-24T11:07:53.456Z,14.30
2023-02-24T11:10:11.396Z,16.43
2023-02-24T11:12:35.029Z,11.20
2023-02-24T11:15:05.577Z,16.97
2023-02-24T11:17:20.893Z,14.43
2023-02-24T11:19:24.123Z,16.70
2023-02-24T11:21:28.297Z,18.90
2023-02-24T11:23:36.036Z,13.40
2023-02-24T11:25:41.031Z,19.77
2023-02-24T11:27:47.442Z,15.67
2023-02-24T11:30:06.435Z,18.27
2023-02-24T11:32:28.074Z,9.50
2023-02-24T11:34:34.652Z,16.23
2023-02-24T11:36:43.424Z,14.87
2023-02-24T11:38:48.526Z,10.37
2023-02-24T11:40:57.516Z,17.70
2023-02-24T11:43:05.320Z,13.20
2023-02-24T11:45:17.493Z,12.20
2023-02-24T11:47:24.421Z,13.73
2023-02-24T11:49:31.609Z,13.17
2023-02-24T11:51:37.752Z,17.33
2023-02-24T11:53:45.170Z,12.60
2023-02-24T11:55:52.921Z,19.67
2023-02-24T11:57:57.325Z,14.30
2023-02-24T12:00:05.774Z,19.93
2023-02-24T12:02:16.965Z,16.07
2023-02-24T12:04:22.564Z,12.43
2023-02-24T12:06:30.771Z,23.50
2023-02-24T12:08:36.249Z,12.83
2023-02-24T12:10:47.680Z,13.17
2023-02-24T12:12:56.272Z,16.57
2023-02-24T12:15:03.998Z,20.27
2023-02-24T12:17:18.059Z,26.67
2023-02-24T12:19:25.560Z,12.30
2023-02-24T12:21:32.012Z,18.50
2023-02-24T12:23:37.661Z,16.03
2023-02-24T12:25:53.513Z,18.80
2023-02-24T12:28:11.235Z,13.17
2023-02-24T12:30:38.270Z,10.20
2023-02-24T12:32:55.411Z,11.13
2023-02-24T12:35:07.167Z,16.27
2023-02-24T12:37:53.054Z,15.43
2023-02-24T12:40:06.865Z,16.77
2023-02-24T12:42:18.619Z,13.57
2023-02-24T12:44:29.204Z,20.17
2023-02-24T12:46:35.992Z,16.53
2023-02-24T12:48:57.157Z,18.73
2023-02-24T12:51:04.671Z,14.60
2023-02-24T12:53:14.822Z,21.23
2023-02-24T12:55:21.618Z,14.17
2023-02-24T12:57:29.820Z,10.57
2023-02-24T12:59:37.984Z,13.30
2023-02-24T13:01:48.627Z,14.53
2023-02-24T13:04:01.191Z,17.40
2023-02-24T13:06:09.993Z,12.70
2023-02-24T13:08:23.554Z,18.17
2023-02-24T13:10:37.693Z,13.73
2023-02-24T13:12:45.453Z,9.50
2023-02-24T13:14:49.462Z,10.77
2023-02-24T13:17:05.327Z,11.10
2023-02-24T13:19:19.897Z,14.60
2023-02-24T13:21:24.847Z,13.23
2023-02-24T13:23:27.917Z,13.03
2023-02-24T13:25:33.711Z,15.33
2023-02-24T13:27:38.857Z,14.37
2023-02-24T13:29:46.046Z,17.83
2023-02-24T13:31:50.379Z,11.17
2023-02-24T13:33:54.870Z,9.00
2023-02-24T13:36:15.833Z,16.30
2023-02-24T13:38:28.378Z,14.50
2023-02-24T13:40:31.644Z,11.90
2023-02-24T13:42:35.976Z,11.60
2023-02-24T13:44:50.642Z,13.23
2023-02-24T13:47:17.221Z,16.90
2023-02-24T13:49:27.997Z,13.77
2023-02-24T13:51:52.705Z,9.90
2023-02-24T13:54:07.438Z,10.57
2023-02-24T13:56:20.763Z,8.00
2023-02-24T13:58:50.504Z,8.63
2023-02-24T14:01:02.792Z,12.90
2023-02-24T14:03:11.594Z,7.77
2023-02-24T14:05:21.685Z,16.87
2023-02-24T14:07:26.097Z,9.77
2023-02-24T14:09:32.300Z,16.43
2023-02-24T14:11:39.973Z,7.83
2023-02-24T14:13:46.532Z,7.53
2023-02-24T14:15:50.285Z,8.70
2023-02-24T14:17:58.028Z,9.10
2023-02-24T14:20:14.298Z,14.30
2023-02-24T14:22:21.536Z,14.03
2023-02-24T14:24:25.416Z,15.73
2023-02-24T14:26:29.979Z,9.70
2023-02-24T14:28:34.687Z,9.40
2023-02-24T14:30:40.409Z,14.33
2023-02-24T14:32:45.346Z,16.57
2023-02-24T14:34:48.636Z,14.03
2023-02-24T14:36:53.919Z,12.60
2023-02-24T14:39:10.627Z,21.00
2023-02-24T14:41:22.379Z,11.70
2023-02-24T14:43:25.700Z,11.37
2023-02-24T14:45:30.856Z,12.73
2023-02-24T14:47:34.851Z,17.70
2023-02-24T14:49:38.575Z,19.80
2023-02-24T14:51:42.245Z,20.73
2023-02-24T14:53:49.944Z,14.80
2023-02-24T14:55:56.817Z,15.40
2023-02-24T14:58:06.071Z,14.93
2023-02-24T15:00:17.381Z,19.53
2023-02-24T15:02:24.748Z,17.80
2023-02-24T15:04:35.614Z,17.23
2023-02-24T15:06:41.026Z,17.83
2023-02-24T15:08:45.654Z,16.10
2023-02-24T15:10:48.940Z,21.20
2023-02-24T15:12:56.279Z,19.23
2023-02-24T15:15:01.216Z,16.47
2023-02-24T15:17:10.613Z,20.50
2023-02-24T15:19:27.306Z,18.50
2023-02-24T15:21:32.433Z,17.23
2023-02-24T15:23:38.737Z,17.77
2023-02-24T15:25:44.569Z,25.00
2023-02-24T15:27:53.566Z,18.03
2023-02-24T15:30:10.623Z,23.50
2023-02-24T15:32:17.487Z,19.83
2023-02-24T15:34:23.206Z,23.47
2023-02-24T15:36:28.272Z,28.57
2023-02-24T15:38:33.466Z,21.87
2023-02-24T15:40:36.788Z,23.10
2023-02-24T15:42:40.718Z,28.17
2023-02-24T15:44:55.149Z,27.37
2023-02-24T15:46:59.296Z,23.07
2023-02-24T15:49:03.415Z,27.20
2023-02-24T15:51:07.491Z,33.00
2023-02-24T15:53:12.974Z,33.37
2023-02-24T15:55:16.658Z,30.53
2023-02-24T15:57:21.263Z,31.87
2023-02-24T15:59:24.344Z,32.00
2023-02-24T16:01:28.930Z,30.30
2023-02-24T16:03:32.730Z,32.77
2023-02-24T16:05:35.780Z,33.83
2023-02-24T16:07:39.329Z,30.33
2023-02-24T16:09:42.606Z,29.83
2023-02-24T16:11:47.886Z,29.63
2023-02-24T16:13:54.052Z,33.13
2023-02-24T16:15:57.049Z,33.00
2023-02-24T16:18:02.739Z,33.93
2023-02-24T16:20:09.133Z,34.40
2023-02-24T16:22:12.180Z,43.30
2023-02-24T16:24:15.633Z,37.37
2023-02-24T16:26:20.473Z,40.50
2023-02-24T16:28:23.563Z,40.73
2023-02-24T16:30:30.446Z,35.67
2023-02-24T16:32:34.449Z,38.57
2023-02-24T16:34:39.321Z,30.53
2023-02-24T16:36:43.870Z,22.00
2023-02-24T16:38:51.066Z,25.03
2023-02-24T16:40:54.675Z,27.10
2023-02-24T16:42:57.936Z,25.03
2023-02-24T16:45:01.017Z,26.83
2023-02-24T16:47:04.258Z,28.27
2023-02-24T16:49:10.278Z,19.10
2023-02-24T16:51:15.321Z,21.77
2023-02-24T16:53:19.776Z,19.70
2023-02-24T16:55:23.870Z,17.93
2023-02-24T16:57:26.845Z,21.60
2023-02-24T16:59:29.806Z,24.77
2023-02-24T17:01:33.873Z,29.43
2023-02-24T17:03:43.314Z,24.50
2023-02-24T17:05:46.586Z,30.90
2023-02-24T17:07:52.475Z,27.07
2023-02-24T17:09:55.679Z,26.70
2023-02-24T17:11:58.747Z,28.33
2023-02-24T17:14:05.102Z,32.83
2023-02-24T17:16:08.612Z,23.83
2023-02-24T17:18:11.933Z,12.97
2023-02-24T17:20:16.648Z,21.77
2023-02-24T17:22:20.514Z,18.03
2023-02-24T17:24:25.048Z,14.10
2023-02-24T17:26:28.247Z,20.67
2023-02-24T17:28:31.307Z,17.73
2023-02-24T17:30:35.882Z,14.00
2023-02-24T17:32:39.124Z,22.47
2023-02-24T17:34:42.588Z,18.27
2023-02-24T17:36:45.743Z,17.70
2023-02-24T17:38:49.626Z,18.03
2023-02-24T17:40:55.640Z,12.93
2023-02-24T17:42:58.662Z,16.30
2023-02-24T17:45:02.400Z,16.87
2023-02-24T17:47:06.422Z,14.10
2023-02-24T17:49:09.339Z,21.93
2023-02-24T17:51:14.673Z,13.60
2023-02-24T17:53:18.249Z,19.60
2023-02-24T17:55:21.453Z,16.97
2023-02-24T17:57:30.046Z,21.40
2023-02-24T17:59:33.304Z,9.40
2023-02-24T18:01:36.237Z,10.57
2023-02-24T18:03:39.641Z,8.80
2023-02-24T18:05:43.159Z,19.30
2023-02-24T18:07:46.294Z,29.97
2023-02-24T18:09:49.428Z,15.20
2023-02-24T18:11:52.554Z,8.10
2023-02-24T18:14:00.370Z,9.03
2023-02-24T18:16:09.635Z,10.20
2023-02-24T18:18:12.706Z,11.40
2023-02-24T18:20:15.868Z,16.37
2023-02-24T18:22:18.805Z,10.23
2023-02-24T18:24:22.809Z,12.10
2023-02-24T18:26:27.139Z,11.43
2023-02-24T18:28:30.865Z,10.43
2023-02-24T18:30:35.329Z,11.63
2023-02-24T18:32:44.875Z,12.50
2023-02-24T18:34:49.446Z,19.73
2023-02-24T18:36:52.449Z,11.50
2023-02-24T18:38:55.472Z,14.40
2023-02-24T18:40:59.915Z,13.97
2023-02-24T18:43:02.873Z,14.83
2023-02-24T18:45:06.888Z,10.03
2023-02-24T18:47:11.408Z,4.00
2023-02-24T18:49:14.559Z,5.93
2023-02-24T18:51:20.531Z,6.87
2023-02-24T18:53:24.952Z,5.27
2023-02-24T18:55:27.794Z,1.83
2023-02-24T18:57:31.153Z,5.70
2023-02-24T18:59:34.396Z,4.30
2023-02-24T19:01:39.666Z,9.73
2023-02-24T19:03:44.510Z,4.77
2023-02-24T19:05:47.562Z,7.93
2023-02-24T19:07:50.691Z,8.57
2023-02-24T19:09:53.975Z,3.17
2023-02-24T19:11:57.065Z,5.23
2023-02-24T19:14:01.079Z,7.40
2023-02-24T19:16:05.065Z,4.60
2023-02-24T19:18:08.648Z,5.77
2023-02-24T19:20:16.311Z,8.50
2023-02-24T19:22:19.289Z,9.57
2023-02-24T19:24:24.584Z,6.07
2023-02-24T19:26:28.420Z,8.03
2023-02-24T19:28:31.736Z,13.60
2023-02-24T19:30:34.783Z,8.60
2023-02-24T19:32:41.613Z,12.87
2023-02-24T19:34:46.072Z,19.83
2023-02-24T19:36:50.452Z,12.87
2023-02-24T19:38:54.012Z,4.60
2023-02-24T19:40:59.664Z,7.03
2023-02-24T19:43:05.081Z,7.97
2023-02-24T19:45:09.948Z,2.87
2023-02-24T19:47:12.944Z,9.30
2023-02-24T19:49:17.506Z,5.43
2023-02-24T19:51:22.596Z,6.60
2023-02-24T19:53:27.250Z,11.83
2023-02-24T19:55:30.699Z,17.73
2023-02-24T19:57:34.095Z,20.00
2023-02-24T19:59:39.572Z,9.17
2023-02-24T20:01:42.743Z,10.93
2023-02-24T20:03:46.067Z,11.13
2023-02-24T20:05:49.689Z,7.07
2023-02-24T20:07:52.746Z,9.20
2023-02-24T20:09:57.401Z,11.50
2023-02-24T20:12:01.827Z,11.97
2023-02-24T20:14:05.514Z,12.13
2023-02-24T20:16:09.648Z,8.80
2023-02-24T20:18:14.019Z,15.70
2023-02-24T20:20:17.577Z,11.70
2023-02-24T20:22:20.575Z,14.30
2023-02-24T20:24:24.418Z,9.80
2023-02-24T20:26:30.261Z,9.13
2023-02-24T20:28:33.359Z,14.70
2023-02-24T20:30:38.230Z,17.83
2023-02-24T20:32:41.762Z,19.23
2023-02-24T20:34:44.890Z,8.90
2023-02-24T20:36:49.218Z,6.30
2023-02-24T20:38:52.932Z,13.50
2023-02-24T20:41:00.434Z,10.70
2023-02-24T20:43:05.948Z,8.17
2023-02-24T20:45:12.328Z,13.17
2023-02-24T20:47:17.072Z,16.23
2023-02-24T20:49:21.527Z,20.50
2023-02-24T20:51:26.007Z,13.67
2023-02-24T20:53:31.707Z,15.63
2023-02-24T20:55:34.799Z,19.63
2023-02-24T20:57:37.937Z,10.30
2023-02-24T20:59:49.266Z,17.70
2023-02-24T21:01:57.976Z,16.30
2023-02-24T21:04:01.780Z,15.67
2023-02-24T21:06:10.122Z,16.07
2023-02-24T21:08:13.668Z,15.30
2023-02-24T21:10:16.822Z,22.13
2023-02-24T21:12:19.828Z,15.33
2023-02-24T21:14:23.396Z,10.20
2023-02-24T21:16:30.768Z,12.47
2023-02-24T21:18:34.781Z,20.30
2023-02-24T21:20:37.741Z,14.47
2023-02-24T21:22:41.054Z,14.70
2023-02-24T21:24:43.990Z,20.87
2023-02-24T21:26:47.393Z,18.90
2023-02-24T21:28:57.311Z,12.90
2023-02-24T21:31:06.074Z,28.27
2023-02-24T21:33:10.524Z,26.60
2023-02-24T21:35:13.480Z,17.20
2023-02-24T21:37:16.930Z,21.53
2023-02-24T21:39:20.881Z,22.23
2023-02-24T21:41:24.449Z,20.70
2023-02-24T21:43:27.989Z,28.90
2023-02-24T21:45:31.121Z,18.40
2023-02-24T21:47:34.062Z,23.83
2023-02-24T21:49:38.855Z,33.20
2023-02-24T21:51:42.604Z,15.10
2023-02-24T21:53:48.034Z,22.00
2023-02-24T21:55:51.307Z,29.57
2023-02-24T21:57:54.420Z,25.20
2023-02-24T21:59:57.691Z,19.67
2023-02-24T22:02:00.730Z,28.60
2023-02-24T22:04:06.106Z,20.20
2023-02-24T22:06:12.872Z,25.33
2023-02-24T22:08:16.185Z,21.37
2023-02-24T22:10:20.897Z,19.13
2023-02-24T22:12:23.821Z,18.27
2023-02-24T22:14:27.794Z,24.90
2023-02-24T22:16:31.274Z,20.57
2023-02-24T22:18:34.266Z,30.20
2023-02-24T22:20:39.118Z,14.57
2023-02-24T22:22:44.643Z,12.63
2023-02-24T22:24:48.057Z,17.20
2023-02-24T22:26:53.516Z,17.50
2023-02-24T22:28:57.165Z,29.77
2023-02-24T22:31:00.369Z,25.83
2023-02-24T22:33:03.448Z,21.57
2023-02-24T22:35:08.363Z,32.83
2023-02-24T22:37:11.475Z,23.07
2023-02-24T22:39:17.037Z,17.00
2023-02-24T22:41:21.637Z,14.67
2023-02-24T22:43:24.916Z,16.00
2023-02-24T22:45:27.796Z,19.10
2023-02-24T22:47:30.875Z,31.60
2023-02-24T22:49:33.777Z,19.27
2023-02-24T22:51:36.749Z,24.43
2023-02-24T22:53:42.359Z,20.73
2023-02-24T22:55:48.672Z,19.37
2023-02-24T22:57:51.702Z,16.33
2023-02-24T22:59:55.013Z,18.83
2023-02-24T23:01:59.541Z,17.73
2023-02-24T23:04:03.541Z,23.97
2023-02-24T23:06:08.523Z,16.47
2023-02-24T23:08:11.588Z,14.40
2023-02-24T23:10:14.756Z,17.47
2023-02-24T23:12:19.082Z,19.73
2023-02-24T23:14:22.030Z,14.77
2023-02-24T23:16:27.352Z,18.50
2023-02-24T23:18:30.587Z,21.33
2023-02-24T23:20:33.770Z,16.70
2023-02-24T23:22:37.020Z,15.40
2023-02-24T23:24:40.703Z,15.27
2023-02-24T23:26:46.782Z,20.67
2023-02-24T23:28:52.010Z,20.53
2023-02-24T23:30:56.053Z,20.77
2023-02-24T23:32:59.002Z,18.67
2023-02-24T23:35:02.803Z,20.60
2023-02-24T23:37:05.980Z,27.93
2023-02-24T23:39:09.153Z,18.33
2023-02-24T23:41:13.024Z,20.40
2023-02-24T23:43:16.273Z,18.77
2023-02-24T23:45:21.150Z,22.30
2023-02-24T23:47:24.528Z,17.73
2023-02-24T23:49:39.103Z,17.70
2023-02-24T23:51:49.359Z,18.30
2023-02-24T23:53:52.947Z,14.83
2023-02-24T23:55:56.012Z,19.67
2023-02-24T23:57:58.989Z,14.27
